Hauppauge, New York
Current Conditions -  °F | °C
As of 7:56 PM on Sunday 21 Dec 2014 (Local Time) from KISP Reporting Station
Overcast Overcast  
Wind Chill: 28°   Ceiling: 700
Heat Index: 36°   Visibility: 10mi
Dew Point: 33°   Wind: 10mph
Humidity: 89%   Direction: 10°N
Pressure: 30.3"   Gusts: NA
Location:  40.83°N, 73.2°W
Report Text: KISP 220056Z 01009KT 10SM OVC007 02/01 A3030 RMK AO2 DZE31 SLP262 P0000 T00220006
Loading
Personal Weather Stations






























Interactive Weather Map New forecast layout! Learn more

10-Day Weather Forecast

Advertisements
Track Severe Weather on mobile